Bowmanville, Canada
Current Conditions -  °F | °C
As of 4:27 PM on Wednesday 17 Dec 2014 (Local Time) from CYOO Reporting Station
Light Rain Light Rain  
Wind Chill: -1°   Ceiling: 2600
Heat Index:   Visibility: 9mi
Dew Point:   Wind: 9mph
Humidity: 87%   Direction: 270°W
Pressure: 29.86"   Gusts: NA
Location:  43.91°N, 78.69°W
Report Text: CYOO 172127Z AUTO 27008KT 9SM -RA SCT013 BKN026 OVC033 03/01 A2986 RMK SLP116
Loading
Personal Weather Stations






























Interactive Weather Map New forecast layout! Learn more

10-Day Weather Forecast

Advertisements
Track Severe Weather on mobile